Jump to content

  •  

UNITED AIRLINES FLIGHT UA1515 FLOWN ON 09-13-2017 BY CAPTAIN JIM BOERMAN

Pilot StatsCaptain Jim Boerman (LDP136) • 4,686.4 total hours • 1,423 total flights [View Logbook]
FLIGHT DETAILS
StatusReceived and approved on 2017-09-13 at 14:09:19
Origin AirportChicago-OHare Intl (KORD) • Chicago, Illinois, United States (668 feet MSL)
Filed Flight PlanKORD JOT J26 IRK J96 SLN J18 ABQ KABQ
Destination AirportAlbuquerque Intl Sunport (KABQ) • Albuquerque, New Mexico, United States (5,354 feet MSL)
Alternate AirportLas Vegas Mun (KLVS) • Las Vegas, New Mexico, United States (6,875 feet MSL)
AirlineUnited Airlines
AircraftBoeing 737-800 | Winglets (73H / B737-800)
FS Aircraft UsedBoeing 737-824NGX United Airlines (Merger) Winglets
Cruising AltitudeFL360
Distance Flown970 nautical miles
Passengers Onboard91 passengers (56.17% full)
DEPARTURE DETAILS
Time Out10:19:41
Taxi Data148,349 lbs total with 21,199 lbs of fuel onboard
Takeoff Data10:31:14 (12 minutes after leaving gate/ramp) • 147,751 lbs total • 10° pitch at 154 knots
Departure METARKORD 131351Z 01005KT 10SM FEW080 BKN110 BKN140 17/15 A2979 RMK AO2 RAB27E48 SLP087 P0000 T01720150
ARRIVAL DETAILS
Landing Data11:55:37 • 135,046 lbs total • 2° pitch doing 126 knots at a rate of -53.83 feet/minute with 7,455 lbs of fuel onboard
Time In12:05:39 (10 minutes after landing)
Ramp Weight134,605 lbs total
Total Fuel Used13,744 lbs
Total Block Time02:45:58 (2.8 hours) while 22 minutes were spent on the ground
Arrival METARKABQ 131752Z 34005KT 10SM FEW080 FEW150 28/06 A3008 RMK AO2 SLP094 T02780061 10278 20178 58008
MISCELLANEOUS DETAILS
LiveDISPATCH Version4.8.3.1
FS Version
FSUIPC Version5.10
OS VersionWindows 7 32-bit
Screen Resolution1920 x 1080
Pilot's CommentsNo Comments Reported
FLIGHT MAP